createdAt,value
2023-01-07T00:00:54.576Z,100.00
2023-01-07T00:04:15.826Z,100.00
2023-01-07T00:07:27.842Z,100.00
2023-01-07T00:10:40.214Z,100.00
2023-01-07T00:13:53.996Z,100.00
2023-01-07T00:17:06.356Z,100.00
2023-01-07T00:20:19.157Z,100.00
2023-01-07T00:23:31.946Z,100.00
2023-01-07T00:26:45.955Z,100.00
2023-01-07T00:29:57.947Z,100.00
2023-01-07T00:33:15.649Z,100.00
2023-01-07T00:36:29.860Z,100.00
2023-01-07T00:39:42.136Z,100.00
2023-01-07T00:43:01.637Z,100.00
2023-01-07T00:46:14.780Z,100.00
2023-01-07T00:49:28.438Z,100.00
2023-01-07T00:52:40.331Z,100.00
2023-01-07T00:55:53.239Z,100.00
2023-01-07T00:59:05.423Z,100.00
2023-01-07T01:02:18.272Z,100.00
2023-01-07T01:05:30.605Z,100.00
2023-01-07T01:08:42.636Z,100.00
2023-01-07T01:11:54.574Z,100.00
2023-01-07T01:15:06.774Z,100.00
2023-01-07T01:18:19.288Z,100.00
2023-01-07T01:21:31.941Z,100.00
2023-01-07T01:24:43.929Z,100.00
2023-01-07T01:27:55.685Z,100.00
2023-01-07T01:31:09.412Z,100.00
2023-01-07T01:34:23.881Z,100.00
2023-01-07T01:37:35.874Z,100.00
2023-01-07T01:40:48.830Z,100.00
2023-01-07T01:44:01.002Z,100.00
2023-01-07T01:47:20.746Z,100.00
2023-01-07T01:50:37.518Z,100.00
2023-01-07T01:53:53.744Z,100.00
2023-01-07T01:57:09.888Z,100.00
2023-01-07T02:00:24.384Z,100.00
2023-01-07T02:03:40.420Z,100.00
2023-01-07T02:06:58.205Z,100.00
2023-01-07T02:10:21.568Z,100.00
2023-01-07T02:13:46.724Z,100.00
2023-01-07T02:17:04.240Z,100.00
2023-01-07T02:20:38.368Z,100.00
2023-01-07T02:24:40.312Z,100.00
2023-01-07T02:28:37.917Z,100.00
2023-01-07T02:32:36.958Z,100.00
2023-01-07T02:36:10.431Z,100.00
2023-01-07T02:39:38.979Z,100.00
2023-01-07T02:42:58.376Z,100.00
2023-01-07T02:46:17.230Z,100.00
2023-01-07T02:49:29.330Z,100.00
2023-01-07T02:52:43.634Z,100.00
2023-01-07T02:56:05.033Z,100.00
2023-01-07T02:59:53.694Z,100.00
2023-01-07T03:03:41.935Z,100.00
2023-01-07T03:07:17.011Z,100.00
2023-01-07T03:10:36.968Z,100.00
2023-01-07T03:13:55.278Z,100.00
2023-01-07T03:17:11.788Z,100.00
2023-01-07T03:20:26.770Z,100.00
2023-01-07T03:23:40.249Z,100.00
2023-01-07T03:26:55.105Z,100.00
2023-01-07T03:30:11.234Z,100.00
2023-01-07T03:33:28.204Z,100.00
2023-01-07T03:36:45.076Z,100.00
2023-01-07T03:39:57.726Z,100.00
2023-01-07T03:43:10.457Z,100.00
2023-01-07T03:46:22.907Z,100.00
2023-01-07T03:49:35.215Z,100.00
2023-01-07T03:52:48.498Z,100.00
2023-01-07T03:56:01.211Z,100.00
2023-01-07T03:59:14.482Z,100.00
2023-01-07T04:02:27.208Z,100.00
2023-01-07T04:05:39.331Z,100.00
2023-01-07T04:08:51.314Z,100.00
2023-01-07T04:12:03.487Z,100.00
2023-01-07T04:15:17.266Z,100.00
2023-01-07T04:18:29.640Z,100.00
2023-01-07T04:21:41.644Z,100.00
2023-01-07T04:24:54.866Z,100.00
2023-01-07T04:28:06.963Z,100.00
2023-01-07T04:31:18.899Z,100.00
2023-01-07T04:34:31.473Z,100.00
2023-01-07T04:37:43.394Z,100.00
2023-01-07T04:40:56.120Z,100.00
2023-01-07T04:44:08.559Z,100.00
2023-01-07T04:47:20.587Z,100.00
2023-01-07T04:50:32.786Z,100.00
2023-01-07T04:53:45.163Z,100.00
2023-01-07T04:56:57.331Z,100.00
2023-01-07T05:00:11.445Z,100.00
2023-01-07T05:03:23.758Z,100.00
2023-01-07T05:06:37.312Z,100.00
2023-01-07T05:09:49.649Z,100.00
2023-01-07T05:13:06.826Z,100.00
2023-01-07T05:16:19.999Z,100.00
2023-01-07T05:19:32.341Z,100.00
2023-01-07T05:22:45.079Z,100.00
2023-01-07T05:25:57.656Z,100.00
2023-01-07T05:29:09.874Z,100.00
2023-01-07T05:32:22.514Z,100.00
2023-01-07T05:35:35.280Z,100.00
2023-01-07T05:38:47.441Z,100.00
2023-01-07T05:42:00.539Z,100.00
2023-01-07T05:45:15.438Z,100.00
2023-01-07T05:48:27.802Z,100.00
2023-01-07T05:51:39.870Z,100.00
2023-01-07T05:54:51.852Z,100.00
2023-01-07T05:58:03.956Z,100.00
2023-01-07T06:01:16.328Z,100.00
2023-01-07T06:04:28.535Z,100.00
2023-01-07T06:07:40.740Z,100.00
2023-01-07T06:10:52.601Z,100.00
2023-01-07T06:14:04.782Z,100.00
2023-01-07T06:17:16.656Z,100.00
2023-01-07T06:20:29.815Z,100.00
2023-01-07T06:23:41.825Z,100.00
2023-01-07T06:26:54.085Z,100.00
2023-01-07T06:33:06.500Z,100.00
2023-01-07T06:36:19.284Z,100.00
2023-01-07T06:39:31.488Z,100.00
2023-01-07T06:42:43.917Z,100.00
2023-01-07T06:45:56.401Z,100.00
2023-01-07T06:49:08.865Z,100.00
2023-01-07T06:52:21.909Z,100.00
2023-01-07T06:55:35.278Z,100.00
2023-01-07T06:58:47.457Z,100.00
2023-01-07T07:02:00.888Z,100.00
2023-01-07T07:05:14.722Z,100.00
2023-01-07T07:08:26.825Z,100.00
2023-01-07T07:11:38.929Z,100.00
2023-01-07T07:14:51.495Z,100.00
2023-01-07T07:18:03.387Z,100.00
2023-01-07T07:24:16.024Z,100.00
2023-01-07T07:27:28.060Z,100.00
2023-01-07T07:30:47.795Z,100.00
2023-01-07T07:33:54.709Z,100.00
2023-01-07T07:37:06.848Z,100.00
2023-01-07T07:40:20.285Z,100.00
2023-01-07T07:43:32.437Z,100.00
2023-01-07T07:46:44.740Z,100.00
2023-01-07T07:49:57.044Z,100.00
2023-01-07T07:53:10.639Z,100.00
2023-01-07T07:56:23.283Z,100.00
2023-01-07T07:59:35.314Z,100.00
2023-01-07T08:02:47.618Z,100.00
2023-01-07T08:05:59.731Z,100.00
2023-01-07T08:09:11.711Z,100.00
2023-01-07T08:12:24.054Z,100.00
2023-01-07T08:15:36.511Z,100.00
2023-01-07T08:18:49.220Z,100.00
2023-01-07T08:22:01.289Z,100.00
2023-01-07T08:25:15.278Z,100.00
2023-01-07T08:28:27.464Z,100.00
2023-01-07T08:31:39.665Z,100.00
2023-01-07T08:34:51.783Z,100.00
2023-01-07T08:38:11.988Z,100.00
2023-01-07T08:41:24.544Z,100.00
2023-01-07T08:44:37.065Z,100.00
2023-01-07T08:47:51.757Z,100.00
2023-01-07T08:51:03.932Z,100.00
2023-01-07T08:54:16.254Z,100.00
2023-01-07T08:57:28.197Z,100.00
2023-01-07T09:00:40.552Z,100.00
2023-01-07T09:03:52.985Z,100.00
2023-01-07T09:07:05.782Z,100.00
2023-01-07T09:10:19.372Z,100.00
2023-01-07T09:13:31.496Z,100.00
2023-01-07T09:16:43.623Z,100.00
2023-01-07T09:19:55.752Z,100.00
2023-01-07T09:23:07.837Z,100.00
2023-01-07T09:26:20.017Z,100.00
2023-01-07T09:29:32.040Z,100.00
2023-01-07T09:32:44.032Z,100.00
2023-01-07T09:35:56.381Z,100.00
2023-01-07T09:39:09.785Z,100.00
2023-01-07T09:42:33.742Z,100.00
2023-01-07T09:45:51.318Z,100.00
2023-01-07T09:49:07.747Z,100.00
2023-01-07T09:52:25.663Z,100.00
2023-01-07T09:56:11.906Z,100.00
2023-01-07T09:58:57.766Z,100.00
2023-01-07T10:02:17.506Z,100.00
2023-01-07T10:05:38.476Z,100.00
2023-01-07T10:09:02.757Z,100.00
2023-01-07T10:12:24.468Z,100.00
2023-01-07T10:15:51.212Z,100.00
2023-01-07T10:19:09.727Z,100.00
2023-01-07T10:22:29.664Z,100.00
2023-01-07T10:25:47.576Z,100.00
2023-01-07T10:29:04.052Z,100.00
2023-01-07T10:32:21.707Z,100.00
2023-01-07T10:35:37.714Z,100.00
2023-01-07T10:38:54.617Z,100.00
2023-01-07T10:42:13.925Z,100.00
2023-01-07T10:46:04.227Z,100.00
2023-01-07T10:49:52.064Z,100.00
2023-01-07T10:53:11.325Z,100.00
2023-01-07T10:56:37.055Z,98.99
2023-01-07T10:59:52.217Z,100.00
2023-01-07T11:03:05.772Z,100.00
2023-01-07T11:06:20.775Z,100.00
2023-01-07T11:09:38.419Z,100.00
2023-01-07T11:12:54.817Z,100.00
2023-01-07T11:16:13.438Z,97.85
2023-01-07T11:19:25.796Z,100.00
2023-01-07T11:22:40.932Z,100.00
2023-01-07T11:25:53.340Z,100.00
2023-01-07T11:29:10.312Z,100.00
2023-01-07T11:32:32.000Z,100.00
2023-01-07T11:35:45.838Z,100.00
2023-01-07T11:39:00.131Z,100.00
2023-01-07T11:42:37.683Z,100.00
2023-01-07T11:46:19.403Z,100.00
2023-01-07T11:49:17.286Z,100.00
2023-01-07T11:52:29.560Z,100.00
2023-01-07T11:55:42.338Z,98.97
2023-01-07T11:58:57.125Z,98.32
2023-01-07T12:02:16.248Z,100.00
2023-01-07T12:05:31.659Z,100.00
2023-01-07T12:08:46.239Z,100.00
2023-01-07T12:12:00.935Z,100.00
2023-01-07T12:15:24.907Z,100.00
2023-01-07T12:19:01.111Z,99.57
2023-01-07T12:22:26.393Z,100.00
2023-01-07T12:25:51.493Z,100.00
2023-01-07T12:29:16.441Z,98.44
2023-01-07T12:32:40.586Z,92.44
2023-01-07T12:35:53.736Z,99.89
2023-01-07T12:39:10.336Z,95.74
2023-01-07T12:42:27.042Z,93.16
2023-01-07T12:45:45.611Z,96.03
2023-01-07T12:49:06.713Z,95.88
2023-01-07T12:52:24.805Z,100.00
2023-01-07T12:55:41.769Z,100.00
2023-01-07T12:58:54.900Z,100.00
2023-01-07T13:02:14.805Z,99.57
2023-01-07T13:05:31.416Z,94.10
2023-01-07T13:08:50.358Z,94.52
2023-01-07T13:12:40.549Z,93.74
2023-01-07T13:15:40.682Z,100.00
2023-01-07T13:18:52.680Z,98.03
2023-01-07T13:22:05.553Z,96.09
2023-01-07T13:25:30.214Z,95.07
2023-01-07T13:29:15.368Z,96.22
2023-01-07T13:32:51.579Z,97.88
2023-01-07T13:36:18.613Z,96.69
2023-01-07T13:39:47.131Z,98.87
2023-01-07T13:43:04.088Z,100.00
2023-01-07T13:46:22.275Z,98.35
2023-01-07T13:49:37.803Z,97.97
2023-01-07T13:52:50.455Z,99.91
2023-01-07T13:56:29.469Z,100.00
2023-01-07T13:59:54.290Z,100.00
2023-01-07T14:03:07.462Z,98.70
2023-01-07T14:06:46.363Z,98.54
2023-01-07T14:10:02.440Z,97.52
2023-01-07T14:13:31.115Z,99.04
2023-01-07T14:16:48.575Z,98.99
2023-01-07T14:20:09.149Z,99.06
2023-01-07T14:23:30.642Z,99.58
2023-01-07T14:26:48.042Z,100.00
2023-01-07T14:30:16.062Z,100.00
2023-01-07T14:33:28.103Z,100.00
2023-01-07T14:37:23.346Z,100.00
2023-01-07T14:41:13.295Z,100.00
2023-01-07T14:44:36.240Z,100.00
2023-01-07T14:48:04.409Z,100.00
2023-01-07T14:51:56.318Z,100.00
2023-01-07T14:55:57.029Z,100.00
2023-01-07T14:59:35.900Z,100.00
2023-01-07T15:03:53.108Z,100.00
2023-01-07T15:07:07.016Z,100.00
2023-01-07T15:10:42.197Z,100.00
2023-01-07T15:14:15.410Z,100.00
2023-01-07T15:17:28.088Z,100.00
2023-01-07T15:20:51.805Z,100.00
2023-01-07T15:24:10.559Z,100.00
2023-01-07T15:27:29.857Z,100.00
2023-01-07T15:30:54.081Z,100.00
2023-01-07T15:34:20.729Z,100.00
2023-01-07T15:37:33.478Z,100.00
2023-01-07T15:40:47.758Z,100.00
2023-01-07T15:44:01.112Z,100.00
2023-01-07T15:47:36.424Z,100.00
2023-01-07T15:50:52.027Z,100.00
2023-01-07T15:54:04.215Z,100.00
2023-01-07T15:57:21.557Z,100.00
2023-01-07T16:00:34.910Z,100.00
2023-01-07T16:03:52.009Z,100.00
2023-01-07T16:07:06.514Z,100.00
2023-01-07T16:10:31.953Z,100.00
2023-01-07T16:13:44.367Z,100.00
2023-01-07T16:17:11.537Z,100.00
2023-01-07T16:20:33.660Z,100.00
2023-01-07T16:23:47.028Z,100.00
2023-01-07T16:27:05.355Z,100.00
2023-01-07T16:30:22.245Z,100.00
2023-01-07T16:33:38.477Z,100.00
2023-01-07T16:36:52.485Z,100.00
2023-01-07T16:40:05.772Z,100.00
2023-01-07T16:43:47.507Z,100.00
2023-01-07T16:47:11.696Z,100.00
2023-01-07T16:50:46.600Z,100.00
2023-01-07T16:53:59.056Z,100.00
2023-01-07T16:57:25.248Z,100.00
2023-01-07T17:00:38.124Z,100.00
2023-01-07T17:03:58.010Z,100.00
2023-01-07T17:07:11.116Z,100.00
2023-01-07T17:10:32.444Z,100.00
2023-01-07T17:13:47.179Z,100.00
2023-01-07T17:17:09.417Z,100.00
2023-01-07T17:20:29.561Z,100.00
2023-01-07T17:24:05.289Z,100.00
2023-01-07T17:27:30.843Z,100.00
2023-01-07T17:30:46.906Z,100.00
2023-01-07T17:34:05.409Z,100.00
2023-01-07T17:37:21.898Z,100.00
2023-01-07T17:40:34.540Z,100.00
2023-01-07T17:43:46.987Z,100.00
2023-01-07T17:46:59.735Z,100.00
2023-01-07T17:50:13.646Z,100.00
2023-01-07T17:53:29.727Z,100.00
2023-01-07T17:56:42.615Z,100.00
2023-01-07T17:59:55.407Z,100.00
2023-01-07T18:03:08.045Z,100.00
2023-01-07T18:06:25.296Z,100.00
2023-01-07T18:09:39.003Z,100.00
2023-01-07T18:12:53.098Z,100.00
2023-01-07T18:16:06.323Z,100.00
2023-01-07T18:19:21.867Z,100.00
2023-01-07T18:22:35.167Z,100.00
2023-01-07T18:25:51.439Z,100.00
2023-01-07T18:29:04.490Z,100.00
2023-01-07T18:32:17.029Z,100.00
2023-01-07T18:35:29.499Z,100.00
2023-01-07T18:38:42.020Z,100.00
2023-01-07T18:41:54.959Z,100.00
2023-01-07T18:45:08.630Z,100.00
2023-01-07T18:48:23.334Z,100.00
2023-01-07T18:51:36.049Z,100.00
2023-01-07T18:54:49.549Z,100.00
2023-01-07T18:58:02.359Z,100.00
2023-01-07T19:01:15.840Z,100.00
2023-01-07T19:04:29.283Z,100.00
2023-01-07T19:07:41.990Z,100.00
2023-01-07T19:10:54.379Z,100.00
2023-01-07T19:14:06.867Z,100.00
2023-01-07T19:17:19.355Z,100.00
2023-01-07T19:20:31.704Z,100.00
2023-01-07T19:23:44.141Z,100.00
2023-01-07T19:26:56.954Z,100.00
2023-01-07T19:30:10.537Z,100.00
2023-01-07T19:33:23.016Z,100.00
2023-01-07T19:36:35.466Z,100.00
2023-01-07T19:39:48.001Z,100.00
2023-01-07T19:43:00.490Z,100.00
2023-01-07T19:46:14.870Z,100.00
2023-01-07T19:49:29.311Z,100.00
2023-01-07T19:52:41.647Z,100.00
2023-01-07T19:55:54.545Z,100.00
2023-01-07T19:59:08.542Z,100.00
2023-01-07T20:02:21.358Z,100.00
2023-01-07T20:05:34.213Z,100.00
2023-01-07T20:08:46.945Z,100.00
2023-01-07T20:11:59.534Z,100.00
2023-01-07T20:15:14.172Z,100.00
2023-01-07T20:18:26.905Z,100.00
2023-01-07T20:21:40.236Z,100.00
2023-01-07T20:24:52.809Z,100.00
2023-01-07T20:28:05.512Z,100.00
2023-01-07T20:31:21.000Z,100.00
2023-01-07T20:34:33.521Z,100.00
2023-01-07T20:37:46.016Z,100.00
2023-01-07T20:40:58.485Z,100.00
2023-01-07T20:44:13.039Z,100.00
2023-01-07T20:47:25.385Z,100.00
2023-01-07T20:50:37.831Z,100.00
2023-01-07T20:53:51.337Z,100.00
2023-01-07T20:57:04.112Z,100.00
2023-01-07T21:00:20.157Z,100.00
2023-01-07T21:03:32.549Z,100.00
2023-01-07T21:06:45.053Z,100.00
2023-01-07T21:09:57.356Z,100.00
2023-01-07T21:13:09.833Z,100.00
2023-01-07T21:16:23.327Z,100.00
2023-01-07T21:19:35.813Z,100.00
2023-01-07T21:22:48.593Z,100.00
2023-01-07T21:26:01.722Z,100.00
2023-01-07T21:29:16.140Z,100.00
2023-01-07T21:32:28.820Z,100.00
2023-01-07T21:35:43.598Z,100.00
2023-01-07T21:39:00.726Z,100.00
2023-01-07T21:42:11.551Z,100.00
2023-01-07T21:45:24.088Z,100.00
2023-01-07T21:48:37.643Z,100.00
2023-01-07T21:51:50.118Z,100.00
2023-01-07T21:55:03.217Z,100.00
2023-01-07T21:58:15.760Z,100.00
2023-01-07T22:01:28.970Z,100.00
2023-01-07T22:04:42.012Z,100.00
2023-01-07T22:07:54.284Z,100.00
2023-01-07T22:11:06.854Z,100.00
2023-01-07T22:14:24.119Z,100.00
2023-01-07T22:17:36.524Z,100.00
2023-01-07T22:20:49.234Z,100.00
2023-01-07T22:24:02.198Z,100.00
2023-01-07T22:27:14.660Z,100.00
2023-01-07T22:30:27.776Z,100.00
2023-01-07T22:33:40.029Z,100.00
2023-01-07T22:36:56.991Z,100.00
2023-01-07T22:40:09.154Z,100.00
2023-01-07T22:43:24.702Z,100.00
2023-01-07T22:46:39.955Z,100.00
2023-01-07T22:49:53.817Z,100.00
2023-01-07T22:53:06.961Z,100.00
2023-01-07T22:56:20.260Z,100.00
2023-01-07T22:59:32.527Z,100.00
2023-01-07T23:02:44.666Z,100.00
2023-01-07T23:05:57.211Z,100.00
2023-01-07T23:09:09.947Z,100.00
2023-01-07T23:12:22.355Z,100.00
2023-01-07T23:15:34.567Z,100.00
2023-01-07T23:18:46.783Z,100.00
2023-01-07T23:22:00.552Z,100.00
2023-01-07T23:25:14.731Z,100.00
2023-01-07T23:28:27.093Z,100.00
2023-01-07T23:31:40.903Z,100.00
2023-01-07T23:34:53.192Z,100.00
2023-01-07T23:38:05.380Z,100.00
2023-01-07T23:41:19.367Z,100.00
2023-01-07T23:44:33.237Z,100.00
2023-01-07T23:47:45.402Z,100.00
2023-01-07T23:50:58.472Z,100.00
2023-01-07T23:54:10.920Z,100.00
2023-01-07T23:57:23.309Z,100.00
